Time;durP1;ratioP1;P1;durP2;ratioP2;P2;SDS_P1;SDS_P2;PMS_P1;PMS_P2;Temp;Humidity;BMP_temperature;BMP_pressure;BME280_temperature;BME280_humidity;BME280_pressure;Samples;Min_cycle;Max_cycle;Signal;HPM_P1;HPM_P2
2021/07/22 00:02:28;;;;;;;12.40;11.00;;;17.50;99.90;;;;;;5004412;28;20455;-72
2021/07/22 00:04:53;;;;;;;16.30;12.03;;;17.20;99.90;;;;;;4981403;28;20498;-72
2021/07/22 00:07:19;;;;;;;14.57;11.20;;;17.20;99.90;;;;;;4975380;28;20412;-72
2021/07/22 00:09:45;;;;;;;12.37;10.93;;;17.20;99.90;;;;;;4975206;28;20169;-72
2021/07/22 00:12:13;;;;;;;14.03;11.17;;;17.20;99.90;;;;;;4975100;28;20192;-71
2021/07/22 00:14:39;;;;;;;10.90;9.60;;;17.30;99.90;;;;;;4974901;28;20207;-72
2021/07/22 00:17:06;;;;;;;12.17;9.60;;;17.30;99.90;;;;;;4976352;28;20404;-72
2021/07/22 00:19:32;;;;;;;12.90;9.77;;;17.40;99.90;;;;;;4978917;28;20590;-72
2021/07/22 00:21:58;;;;;;;12.03;9.83;;;17.40;99.90;;;;;;4979164;28;20456;-71
2021/07/22 00:24:25;;;;;;;10.30;8.50;;;17.30;99.90;;;;;;4978697;28;20952;-71
2021/07/22 00:26:51;;;;;;;12.27;9.63;;;17.20;99.90;;;;;;4978407;28;20794;-72
2021/07/22 00:29:17;;;;;;;13.03;10.33;;;17.10;99.90;;;;;;4978419;28;20440;-71
2021/07/22 00:31:43;;;;;;;14.67;10.60;;;17.00;99.90;;;;;;4978665;28;20413;-71
2021/07/22 00:34:08;;;;;;;12.80;10.67;;;16.90;99.90;;;;;;4978688;28;20942;-71
2021/07/22 00:36:34;;;;;;;14.37;9.90;;;16.80;99.90;;;;;;4978161;28;20671;-71
2021/07/22 00:38:59;;;;;;;14.60;12.00;;;16.70;99.90;;;;;;4978388;28;20655;-71
2021/07/22 00:41:25;;;;;;;14.27;10.30;;;16.70;99.90;;;;;;4978504;28;20559;-72
2021/07/22 00:43:50;;;;;;;13.40;10.50;;;16.70;99.90;;;;;;4978301;28;20275;-71
2021/07/22 00:46:16;;;;;;;11.50;9.47;;;16.60;99.90;;;;;;4978609;28;20180;-71
2021/07/22 00:48:42;;;;;;;13.07;10.17;;;16.70;99.90;;;;;;4978701;28;20581;-72
2021/07/22 00:51:07;;;;;;;10.93;9.27;;;16.70;99.90;;;;;;4977970;28;20677;-72
2021/07/22 00:53:34;;;;;;;10.83;9.70;;;16.80;99.90;;;;;;4978056;28;20459;-71
2021/07/22 00:56:00;;;;;;;10.70;9.57;;;16.90;99.90;;;;;;4978086;28;20165;-71
2021/07/22 00:58:25;;;;;;;12.43;9.73;;;17.00;99.90;;;;;;4978143;28;20423;-71
2021/07/22 01:00:51;;;;;;;13.20;10.20;;;17.00;99.90;;;;;;4978065;28;20177;-71
2021/07/22 01:03:16;;;;;;;12.03;9.33;;;17.10;99.90;;;;;;4977854;28;20655;-72
2021/07/22 01:20:02;;;;;;;10.73;9.50;;;17.20;99.90;;;;;;4977930;28;20471;-71
2021/07/22 01:22:29;;;;;;;14.77;9.47;;;17.20;99.90;;;;;;4977327;28;20503;-72
2021/07/22 01:24:55;;;;;;;10.67;8.97;;;17.20;99.90;;;;;;4977652;28;20413;-72
2021/07/22 01:27:20;;;;;;;10.33;8.60;;;17.20;99.90;;;;;;4977015;28;20481;-71
2021/07/22 01:29:46;;;;;;;11.47;9.00;;;17.20;99.90;;;;;;4976991;28;20204;-72
2021/07/22 01:32:11;;;;;;;10.97;9.10;;;17.10;99.90;;;;;;4977273;28;20208;-71
2021/07/22 01:34:37;;;;;;;10.70;9.43;;;17.20;99.90;;;;;;4977231;28;20200;-71
2021/07/22 01:37:02;;;;;;;13.77;10.20;;;17.20;99.90;;;;;;4959798;28;20453;-72
2021/07/22 01:39:29;;;;;;;9.70;8.20;;;17.20;99.90;;;;;;4977623;28;20617;-72
2021/07/22 01:41:55;;;;;;;12.87;10.47;;;17.20;99.90;;;;;;4977580;28;20180;-72
2021/07/22 01:44:20;;;;;;;11.07;9.88;;;17.20;99.90;;;;;;4976450;28;20426;-72
2021/07/22 01:46:46;;;;;;;13.60;9.63;;;17.20;99.90;;;;;;4977962;28;20830;-72
2021/07/22 01:49:11;;;;;;;11.10;8.70;;;17.20;99.90;;;;;;4978334;28;20505;-71
2021/07/22 01:51:37;;;;;;;11.07;9.30;;;17.20;99.90;;;;;;4977270;28;20188;-71
2021/07/22 01:54:02;;;;;;;10.40;8.87;;;17.20;99.90;;;;;;4977216;28;20654;-72
2021/07/22 01:56:28;;;;;;;9.70;8.47;;;17.20;99.90;;;;;;4977134;28;20184;-72
2021/07/22 01:58:53;;;;;;;12.40;9.40;;;17.20;99.90;;;;;;4977378;28;20185;-71
2021/07/22 02:01:19;;;;;;;10.90;9.30;;;17.20;99.90;;;;;;4976911;28;20614;-72
2021/07/22 02:03:44;;;;;;;11.97;9.87;;;17.20;99.90;;;;;;4977250;28;20259;-71
2021/07/22 02:06:11;;;;;;;14.30;10.40;;;17.20;99.90;;;;;;4976783;28;20171;-72
2021/07/22 02:08:36;;;;;;;9.80;8.80;;;17.10;99.90;;;;;;4977710;28;20177;-72
2021/07/22 02:11:03;;;;;;;12.13;8.97;;;17.10;99.90;;;;;;4976878;28;20779;-72
2021/07/22 02:13:29;;;;;;;10.33;8.90;;;17.10;99.90;;;;;;4976767;28;20217;-72
2021/07/22 02:15:54;;;;;;;12.70;9.47;;;17.10;99.90;;;;;;4976838;28;20502;-71
2021/07/22 02:18:20;;;;;;;11.67;8.90;;;17.10;99.90;;;;;;4976437;28;20220;-71
2021/07/22 02:20:46;;;;;;;10.80;9.27;;;17.10;99.90;;;;;;4976573;28;20176;-71
2021/07/22 02:23:12;;;;;;;10.57;9.47;;;17.00;99.90;;;;;;4959303;28;20444;-72
2021/07/22 02:25:37;;;;;;;10.80;8.27;;;17.00;99.90;;;;;;4976236;28;20188;-71
2021/07/22 02:28:03;;;;;;;11.67;8.90;;;17.00;99.90;;;;;;4976604;28;20173;-71
2021/07/22 02:30:29;;;;;;;12.10;9.37;;;17.00;99.90;;;;;;4976778;28;20233;-72
2021/07/22 02:32:54;;;;;;;9.67;7.97;;;17.00;99.90;;;;;;4958909;28;20440;-72
2021/07/22 02:35:20;;;;;;;11.90;10.10;;;17.10;99.90;;;;;;4975798;28;20587;-71
2021/07/22 02:37:46;;;;;;;12.30;10.07;;;17.10;99.90;;;;;;4976126;28;20630;-71
2021/07/22 02:40:12;;;;;;;10.33;9.20;;;17.00;99.90;;;;;;4975688;28;20169;-72
2021/07/22 02:42:38;;;;;;;13.27;9.80;;;16.80;99.90;;;;;;4976435;28;20439;-72
2021/07/22 02:45:07;;;;;;;13.57;10.07;;;16.60;99.90;;;;;;4976109;28;20412;-71
2021/07/22 02:47:33;;;;;;;14.60;11.20;;;16.50;99.90;;;;;;4976150;28;20173;-71
2021/07/22 02:49:58;;;;;;;15.23;9.97;;;16.40;99.90;;;;;;4975627;28;20415;-71
2021/07/22 02:52:24;;;;;;;11.30;9.13;;;16.50;99.90;;;;;;4975910;28;20641;-71
2021/07/22 02:54:50;;;;;;;13.60;9.13;;;16.50;99.90;;;;;;4975898;28;20686;-72
2021/07/22 02:57:15;;;;;;;11.30;9.43;;;16.60;99.90;;;;;;4976251;28;20400;-71
2021/07/22 02:59:41;;;;;;;12.13;8.73;;;16.60;99.90;;;;;;4975657;28;20173;-72
2021/07/22 03:02:07;;;;;;;10.30;9.03;;;16.70;99.90;;;;;;4976134;28;20645;-71
2021/07/22 03:04:32;;;;;;;11.23;8.80;;;16.70;99.90;;;;;;4975366;28;20295;-72
2021/07/22 03:06:58;;;;;;;11.90;9.03;;;16.70;99.90;;;;;;4976173;28;20173;-71
2021/07/22 03:09:23;;;;;;;15.03;9.10;;;16.70;99.90;;;;;;4975455;28;20177;-71
2021/07/22 03:11:49;;;;;;;12.43;8.97;;;16.70;99.90;;;;;;4975959;28;20669;-71
2021/07/22 03:14:14;;;;;;;11.87;9.70;;;16.70;99.90;;;;;;4975195;28;20299;-72
2021/07/22 03:16:40;;;;;;;11.93;9.83;;;16.70;99.90;;;;;;4979408;28;20919;-71
2021/07/22 03:19:06;;;;;;;17.57;9.30;;;16.70;99.90;;;;;;4977383;28;20779;-71
2021/07/22 03:21:31;;;;;;;11.27;9.13;;;16.60;99.90;;;;;;4978708;28;20228;-69
2021/07/22 03:23:57;;;;;;;13.87;9.77;;;16.70;99.90;;;;;;4978389;28;20574;-70
2021/07/22 03:26:22;;;;;;;15.27;8.67;;;16.70;99.90;;;;;;4978925;28;20577;-69
2021/07/22 03:28:48;;;;;;;12.93;10.00;;;16.70;99.90;;;;;;4976504;28;20251;-72
2021/07/22 03:31:13;;;;;;;13.47;10.83;;;16.70;99.90;;;;;;4976101;28;20482;-72
2021/07/22 03:33:39;;;;;;;12.70;9.33;;;16.70;99.90;;;;;;4974352;28;20236;-72
2021/07/22 03:36:05;;;;;;;12.80;9.07;;;16.70;99.90;;;;;;4975283;28;20526;-70
2021/07/22 03:38:31;;;;;;;12.77;8.73;;;16.70;99.90;;;;;;4975022;28;20180;-70
2021/07/22 03:40:56;;;;;;;10.90;9.40;;;16.70;99.90;;;;;;4975017;28;20172;-71
2021/07/22 03:43:22;;;;;;;11.63;9.50;;;16.70;99.90;;;;;;4975152;28;20933;-71
2021/07/22 03:45:47;;;;;;;11.50;9.60;;;16.80;99.90;;;;;;4974557;28;20202;-70
2021/07/22 03:48:13;;;;;;;11.40;10.00;;;16.70;99.90;;;;;;4974222;28;20432;-71
2021/07/22 03:50:39;;;;;;;12.60;10.23;;;16.80;99.90;;;;;;4975005;28;20185;-71
2021/07/22 03:53:04;;;;;;;11.77;9.40;;;16.80;99.90;;;;;;4974726;28;20511;-70
2021/07/22 03:55:30;;;;;;;12.00;10.00;;;16.80;99.90;;;;;;4974057;28;20488;-70
2021/07/22 03:57:56;;;;;;;12.47;9.93;;;16.80;99.90;;;;;;4974844;28;20174;-70
2021/07/22 04:00:23;;;;;;;12.60;9.57;;;16.80;99.90;;;;;;4975218;28;20172;-71
2021/07/22 04:03:00;;;;;;;12.13;9.30;;;16.80;99.90;;;;;;4974922;28;20420;-70
2021/07/22 04:05:27;;;;;;;10.70;8.80;;;16.80;99.90;;;;;;4974742;28;20921;-71
2021/07/22 04:07:57;;;;;;;9.97;8.23;;;16.90;99.90;;;;;;4974872;28;20470;-71
2021/07/22 04:10:27;;;;;;;12.20;9.67;;;16.90;99.90;;;;;;4974727;28;20435;-71
2021/07/22 04:12:56;;;;;;;14.80;10.30;;;16.90;99.90;;;;;;4998218;28;20428;-71
2021/07/22 04:15:25;;;;;;;12.63;9.03;;;16.90;99.90;;;;;;4994636;28;20456;-71
2021/07/22 04:17:52;;;;;;;13.50;9.43;;;16.90;99.90;;;;;;4975150;28;20405;-71
2021/07/22 04:20:18;;;;;;;13.07;9.67;;;16.90;99.90;;;;;;4975185;28;20435;-71
2021/07/22 04:22:44;;;;;;;10.97;9.20;;;17.00;99.90;;;;;;4957155;28;20440;-71
2021/07/22 04:25:10;;;;;;;14.90;10.43;;;17.00;99.90;;;;;;4975152;28;20422;-71
2021/07/22 04:27:35;;;;;;;15.80;10.53;;;17.10;99.90;;;;;;4973217;28;20754;-71
2021/07/22 04:30:01;;;;;;;11.53;9.80;;;17.10;99.90;;;;;;4974664;28;20874;-71
2021/07/22 04:32:27;;;;;;;11.60;9.53;;;17.20;99.90;;;;;;4973211;28;20213;-71
2021/07/22 04:34:53;;;;;;;13.27;9.20;;;17.20;99.90;;;;;;4974621;28;20204;-71
2021/07/22 04:37:18;;;;;;;12.57;9.13;;;17.20;99.90;;;;;;4975383;28;20260;-72
2021/07/22 04:39:44;;;;;;;11.90;10.37;;;17.20;99.90;;;;;;4974011;28;20424;-71
2021/07/22 04:42:09;;;;;;;13.43;10.23;;;17.20;99.90;;;;;;4974666;28;20428;-71
2021/07/22 04:44:35;;;;;;;15.47;9.67;;;17.30;99.90;;;;;;4974502;28;20169;-71
2021/07/22 04:47:00;;;;;;;12.73;9.90;;;17.20;99.90;;;;;;4974432;28;20203;-71
2021/07/22 04:49:26;;;;;;;12.13;10.00;;;17.30;99.90;;;;;;4974423;28;20247;-71
2021/07/22 04:51:51;;;;;;;11.50;8.83;;;17.30;99.90;;;;;;4975005;28;20173;-71
2021/07/22 04:54:17;;;;;;;12.00;9.13;;;17.40;99.90;;;;;;4975833;28;20189;-71
2021/07/22 04:56:43;;;;;;;10.30;8.83;;;17.40;99.90;;;;;;4974404;28;20169;-71
2021/07/22 04:59:09;;;;;;;12.20;9.53;;;17.50;99.90;;;;;;4974463;28;20515;-71
2021/07/22 05:01:34;;;;;;;12.07;9.07;;;17.50;99.90;;;;;;4974656;28;20180;-71
2021/07/22 05:04:00;;;;;;;11.00;9.00;;;17.50;99.90;;;;;;4975773;28;20925;-71
2021/07/22 05:06:26;;;;;;;13.00;9.80;;;17.60;99.90;;;;;;4977619;28;20571;-71
2021/07/22 05:08:51;;;;;;;12.67;9.27;;;17.60;99.90;;;;;;4978459;28;20180;-71
2021/07/22 05:11:17;;;;;;;13.67;9.40;;;17.60;99.90;;;;;;4978079;28;20212;-71
2021/07/22 05:13:43;;;;;;;15.70;9.83;;;17.60;99.90;;;;;;4977526;28;20272;-71
2021/07/22 05:16:08;;;;;;;13.60;9.43;;;17.70;99.90;;;;;;4977524;28;20162;-71
2021/07/22 05:18:35;;;;;;;13.27;10.27;;;17.70;99.90;;;;;;4960590;28;20423;-71
2021/07/22 05:21:06;;;;;;;13.83;9.83;;;17.80;99.90;;;;;;4977803;28;20220;-72
2021/07/22 05:23:33;;;;;;;11.07;8.73;;;17.80;99.90;;;;;;4977967;28;20480;-72
2021/07/22 05:26:03;;;;;;;10.40;8.87;;;17.90;99.90;;;;;;4977033;28;20400;-71
2021/07/22 05:28:29;;;;;;;12.77;10.10;;;17.90;99.90;;;;;;4977279;28;20416;-72
2021/07/22 05:30:55;;;;;;;11.90;10.10;;;18.00;99.90;;;;;;4977451;28;20404;-72
2021/07/22 05:33:20;;;;;;;11.63;9.50;;;18.00;99.90;;;;;;4976948;28;20185;-71
2021/07/22 05:35:46;;;;;;;11.80;9.50;;;18.10;99.90;;;;;;4975766;28;20193;-72
2021/07/22 05:38:11;;;;;;;11.33;9.03;;;17.90;99.90;;;;;;4976861;28;20200;-72
2021/07/22 05:40:37;;;;;;;11.67;9.80;;;18.00;99.90;;;;;;4975537;28;20192;-71
2021/07/22 05:43:03;;;;;;;11.17;9.77;;;18.10;99.90;;;;;;4976558;28;20201;-71
2021/07/22 05:45:28;;;;;;;14.57;9.83;;;18.10;99.90;;;;;;4972939;28;20595;-72
2021/07/22 05:47:55;;;;;;;11.53;10.33;;;18.20;99.90;;;;;;4975470;28;20212;-72
2021/07/22 05:50:20;;;;;;;13.30;10.13;;;18.20;99.90;;;;;;4977514;28;20180;-72
2021/07/22 05:52:46;;;;;;;13.23;10.73;;;18.20;99.90;;;;;;4968197;28;20502;-71
2021/07/22 05:55:12;;;;;;;14.57;10.00;;;18.20;99.90;;;;;;4976585;28;20259;-71
2021/07/22 05:57:37;;;;;;;12.63;9.60;;;18.20;99.90;;;;;;4976802;28;20181;-71
2021/07/22 06:00:07;;;;;;;12.97;9.43;;;18.30;99.90;;;;;;4976428;28;20239;-72
2021/07/22 06:02:32;;;;;;;12.85;10.65;;;18.30;99.90;;;;;;4976046;28;20450;-71
2021/07/22 06:05:00;;;;;;;10.77;9.60;;;18.40;99.90;;;;;;4967874;28;20708;-71
2021/07/22 06:07:26;;;;;;;13.27;9.90;;;18.50;99.90;;;;;;4977074;28;20177;-71
2021/07/22 06:09:54;;;;;;;13.60;9.53;;;18.50;99.90;;;;;;4976518;28;21084;-71
2021/07/22 06:12:20;;;;;;;12.43;10.37;;;18.60;99.90;;;;;;4977074;28;20292;-71
2021/07/22 06:14:45;;;;;;;11.97;10.50;;;18.80;99.90;;;;;;4973952;28;20611;-71
2021/07/22 06:17:13;;;;;;;11.73;9.43;;;18.80;99.90;;;;;;4967710;28;20255;-71
2021/07/22 06:19:39;;;;;;;14.87;9.80;;;18.90;99.90;;;;;;4976037;28;20181;-71
2021/07/22 06:22:05;;;;;;;12.07;10.43;;;18.90;99.90;;;;;;4975842;28;20431;-72
2021/07/22 06:24:30;;;;;;;12.13;10.00;;;19.00;99.90;;;;;;4966834;28;20188;-70
2021/07/22 06:26:56;;;;;;;11.50;9.47;;;19.10;99.90;;;;;;4959676;28;20264;-71
2021/07/22 06:29:22;;;;;;;12.73;10.03;;;19.10;99.90;;;;;;4975541;28;20209;-71
2021/07/22 06:31:47;;;;;;;13.50;10.20;;;19.20;99.90;;;;;;4976113;28;20235;-72
2021/07/22 06:34:13;;;;;;;13.03;9.83;;;19.20;99.90;;;;;;4976000;28;20280;-72
2021/07/22 06:36:38;;;;;;;12.07;9.10;;;19.30;99.90;;;;;;4976219;28;20191;-72
2021/07/22 06:39:05;;;;;;;12.93;9.20;;;19.30;99.90;;;;;;4975470;28;20282;-72
2021/07/22 06:41:30;;;;;;;13.80;10.03;;;19.30;99.90;;;;;;4975135;28;20188;-71
2021/07/22 06:43:56;;;;;;;12.77;9.33;;;19.40;99.90;;;;;;4976999;28;20817;-72
2021/07/22 06:46:21;;;;;;;10.50;8.67;;;19.40;99.90;;;;;;4976141;28;20188;-71
2021/07/22 06:48:49;;;;;;;11.20;9.03;;;19.40;99.90;;;;;;4975451;28;20259;-71
2021/07/22 06:51:15;;;;;;;10.87;8.77;;;19.50;99.90;;;;;;4977180;28;20207;-71
2021/07/22 06:53:42;;;;;;;13.82;10.20;;;19.60;99.90;;;;;;4981951;28;20418;-71
2021/07/22 06:56:07;;;;;;;11.57;9.73;;;19.60;99.90;;;;;;4984445;28;20188;-71
2021/07/22 06:58:33;;;;;;;12.13;9.97;;;19.70;99.90;;;;;;4982237;28;20440;-71
2021/07/22 07:01:01;;;;;;;16.17;10.57;;;19.80;99.90;;;;;;4981831;28;20224;-70
2021/07/22 07:03:27;;;;;;;13.10;9.97;;;19.80;99.90;;;;;;4980149;28;20235;-70
2021/07/22 07:05:53;;;;;;;13.50;9.17;;;19.80;99.90;;;;;;4985573;28;20431;-71
2021/07/22 07:08:18;;;;;;;14.30;9.70;;;19.90;99.90;;;;;;4969206;28;20212;-71
2021/07/22 07:10:44;;;;;;;14.87;9.30;;;20.00;99.90;;;;;;4948434;29;20554;-70
2021/07/22 07:13:12;;;;;;;13.03;10.07;;;20.00;99.90;;;;;;4965285;28;20193;-70
2021/07/22 07:15:38;;;;;;;13.57;9.90;;;20.00;99.90;;;;;;4973149;28;20220;-70
2021/07/22 07:18:06;;;;;;;11.97;9.97;;;20.00;99.90;;;;;;4975407;28;20785;-71
2021/07/22 07:20:32;;;;;;;13.60;9.67;;;19.90;99.90;;;;;;4975307;28;20212;-72
2021/07/22 07:22:58;;;;;;;11.37;9.27;;;19.90;99.90;;;;;;4975737;28;20459;-72
2021/07/22 07:25:24;;;;;;;12.80;9.30;;;19.90;99.90;;;;;;4977139;28;20428;-72
2021/07/22 07:27:49;;;;;;;10.93;9.45;;;19.90;99.90;;;;;;4974779;28;20444;-72
2021/07/22 07:30:19;;;;;;;12.93;9.17;;;19.90;99.90;;;;;;4993517;28;20220;-72
2021/07/22 07:32:45;;;;;;;14.00;9.63;;;19.90;99.90;;;;;;4965457;28;20678;-72
2021/07/22 07:35:11;;;;;;;14.03;10.80;;;20.00;99.90;;;;;;4974881;28;20456;-72
2021/07/22 07:37:37;;;;;;;11.77;9.17;;;20.00;99.90;;;;;;4974699;28;20183;-71
2021/07/22 07:40:03;;;;;;;15.00;10.50;;;20.00;99.90;;;;;;4975596;28;20420;-71
2021/07/22 07:42:28;;;;;;;15.10;10.50;;;20.00;99.90;;;;;;4972753;28;20223;-72
2021/07/22 07:44:54;;;;;;;13.10;9.90;;;20.00;99.90;;;;;;4967167;28;20436;-72
2021/07/22 07:47:20;;;;;;;11.87;9.90;;;20.00;99.90;;;;;;4971694;28;20215;-71
2021/07/22 07:49:45;;;;;;;12.90;10.07;;;20.00;99.90;;;;;;4972462;28;20674;-71
2021/07/22 07:52:12;;;;;;;13.53;10.67;;;20.00;99.90;;;;;;4970522;28;20230;-71
2021/07/22 07:54:38;;;;;;;13.33;9.77;;;20.00;99.90;;;;;;4971762;28;20649;-71
2021/07/22 07:57:04;;;;;;;14.30;10.40;;;20.10;99.90;;;;;;4970424;28;20455;-72
2021/07/22 07:59:29;;;;;;;17.57;10.40;;;20.10;99.90;;;;;;4972485;28;20590;-71
2021/07/22 08:01:55;;;;;;;13.50;9.80;;;20.10;99.90;;;;;;4987214;28;20204;-71
2021/07/22 08:04:20;;;;;;;13.00;9.30;;;20.20;99.90;;;;;;4971479;28;20285;-71
2021/07/22 08:06:46;;;;;;;11.17;9.47;;;20.20;99.90;;;;;;4971740;28;20680;-72
2021/07/22 08:09:11;;;;;;;10.13;8.13;;;20.30;99.90;;;;;;4971125;28;20282;-72
2021/07/22 08:11:37;;;;;;;12.40;8.80;;;20.40;99.90;;;;;;4971491;28;20204;-72
2021/07/22 08:14:02;;;;;;;10.10;8.50;;;20.50;99.90;;;;;;4971101;28;20217;-71
2021/07/22 08:16:28;;;;;;;11.30;9.90;;;20.70;99.90;;;;;;4969632;28;20287;-71
2021/07/22 08:18:53;;;;;;;10.57;8.30;;;20.80;99.90;;;;;;4971691;28;20188;-70
2021/07/22 08:21:19;;;;;;;13.07;8.70;;;21.00;99.90;;;;;;4971288;28;20196;-70
2021/07/22 08:23:45;;;;;;;10.60;8.57;;;21.10;99.90;;;;;;4972459;28;20220;-70
2021/07/22 08:26:10;;;;;;;10.40;8.93;;;21.30;99.90;;;;;;4971274;28;20208;-71
2021/07/22 08:28:37;;;;;;;11.30;8.70;;;21.50;99.90;;;;;;4970833;28;20654;-71
2021/07/22 08:31:03;;;;;;;11.40;9.43;;;21.60;99.90;;;;;;4971354;28;20184;-71
2021/07/22 08:33:29;;;;;;;15.30;8.50;;;21.80;99.90;;;;;;4970462;28;20502;-71
2021/07/22 08:35:55;;;;;;;11.73;8.00;;;22.00;99.90;;;;;;4971009;28;20455;-71
2021/07/22 08:38:21;;;;;;;10.40;7.67;;;22.30;99.90;;;;;;4972302;28;20479;-71
2021/07/22 08:40:46;;;;;;;10.30;8.33;;;22.40;99.90;;;;;;4975418;28;20185;-71
2021/07/22 08:43:12;;;;;;;10.83;9.00;;;22.50;99.90;;;;;;4974647;28;20209;-71
2021/07/22 08:45:38;;;;;;;9.10;7.67;;;22.70;99.90;;;;;;4975409;28;20207;-71
2021/07/22 08:48:04;;;;;;;13.00;8.80;;;22.80;99.30;;;;;;4977694;28;20588;-71
2021/07/22 08:50:29;;;;;;;9.60;8.40;;;22.80;98.80;;;;;;4975161;28;20638;-72
2021/07/22 08:52:55;;;;;;;10.90;8.55;;;22.90;98.40;;;;;;4974914;28;20513;-71
2021/07/22 08:55:21;;;;;;;10.97;8.30;;;22.90;97.70;;;;;;4974703;28;20196;-71
2021/07/22 08:57:48;;;;;;;15.50;8.73;;;22.90;97.50;;;;;;4975548;28;20176;-72
2021/07/22 09:00:15;;;;;;;9.17;7.63;;;22.80;97.70;;;;;;4974764;28;20423;-71
2021/07/22 09:02:42;;;;;;;18.40;9.27;;;22.70;97.80;;;;;;4974496;28;20447;-71
2021/07/22 09:05:08;;;;;;;9.57;8.30;;;22.50;97.90;;;;;;4974885;28;20447;-71
2021/07/22 09:07:34;;;;;;;12.03;8.80;;;22.50;98.30;;;;;;4974457;28;20431;-71
2021/07/22 09:10:05;;;;;;;10.77;8.40;;;22.50;98.20;;;;;;4974742;28;20428;-71
2021/07/22 09:12:42;;;;;;;15.60;10.50;;;22.50;98.00;;;;;;4974659;28;20298;-71
2021/07/22 09:15:13;;;;;;;14.80;12.10;;;22.50;97.50;;;;;;4973404;28;20455;-71
2021/07/22 09:17:39;;;;;;;14.10;10.50;;;22.50;97.70;;;;;;4970584;28;20503;-71
2021/07/22 09:20:31;;;;;;;15.90;11.30;;;22.40;97.20;;;;;;4971143;28;20810;-71
2021/07/22 09:22:58;;;;;;;14.07;10.63;;;22.60;97.20;;;;;;4973392;28;20232;-71
2021/07/22 09:25:40;;;;;;;12.30;10.17;;;22.80;97.20;;;;;;4974823;28;20524;-72
2021/07/22 09:28:06;;;;;;;11.37;8.93;;;22.90;96.80;;;;;;4972839;28;20456;-72
2021/07/22 09:30:32;;;;;;;13.73;11.23;;;23.00;96.90;;;;;;4974303;28;20459;-70
2021/07/22 09:32:57;;;;;;;15.20;10.10;;;23.20;96.70;;;;;;4972948;28;20244;-73
2021/07/22 09:35:24;;;;;;;12.37;10.73;;;23.20;96.50;;;;;;4973566;28;20475;-70
2021/07/22 09:37:53;;;;;;;14.50;9.43;;;23.20;96.30;;;;;;4973809;28;20196;-71
2021/07/22 09:40:38;;;;;;;11.77;9.83;;;23.20;96.50;;;;;;4973615;28;20524;-71
2021/07/22 09:43:04;;;;;;;12.60;9.70;;;23.30;95.80;;;;;;4972889;28;20469;-71
2021/07/22 09:45:31;;;;;;;10.23;9.13;;;23.40;95.60;;;;;;4963960;28;20489;-70
2021/07/22 09:48:06;;;;;;;10.23;9.13;;;23.50;95.70;;;;;;4956975;28;20197;-72
2021/07/22 09:50:39;;;;;;;9.47;8.60;;;23.60;96.40;;;;;;4929884;28;20935;-71
2021/07/22 09:53:07;;;;;;;13.80;9.07;;;23.80;95.20;;;;;;4914915;28;20871;-70
2021/07/22 09:55:34;;;;;;;8.90;8.00;;;23.90;94.70;;;;;;4974066;28;20490;-70
2021/07/22 09:58:02;;;;;;;12.37;8.67;;;24.20;95.10;;;;;;4973098;28;20416;-70
2021/07/22 10:00:29;;;;;;;9.00;7.90;;;24.40;95.20;;;;;;4977017;28;20420;-70
2021/07/22 10:02:58;;;;;;;12.33;9.90;;;24.50;94.60;;;;;;4975134;28;20555;-70
2021/07/22 10:05:27;;;;;;;14.27;10.77;;;24.50;94.30;;;;;;4976442;28;20950;-70
2021/07/22 10:07:54;;;;;;;18.43;11.00;;;24.60;94.60;;;;;;4977499;28;20420;-69
2021/07/22 10:10:27;;;;;;;13.07;10.73;;;24.40;95.30;;;;;;4958637;28;20425;-70
2021/07/22 10:12:52;;;;;;;16.70;10.67;;;24.20;95.70;;;;;;4959308;28;20477;-71
2021/07/22 10:15:19;;;;;;;14.37;10.83;;;23.90;96.20;;;;;;4962216;28;20487;-69
2021/07/22 10:17:47;;;;;;;12.77;10.23;;;23.70;96.50;;;;;;4967226;28;20192;-70
2021/07/22 10:20:14;;;;;;;13.77;10.70;;;23.70;96.60;;;;;;4974110;28;20502;-70
2021/07/22 10:22:42;;;;;;;12.93;10.60;;;23.60;96.30;;;;;;4973469;28;20514;-70
2021/07/22 10:25:10;;;;;;;12.47;10.73;;;23.60;96.70;;;;;;4972930;28;20516;-71
2021/07/22 10:27:37;;;;;;;14.37;11.60;;;23.60;96.10;;;;;;4973516;28;20415;-70
2021/07/22 10:30:08;;;;;;;13.70;10.77;;;23.70;95.60;;;;;;4973211;28;20420;-71
2021/07/22 10:32:35;;;;;;;13.00;9.60;;;23.90;96.20;;;;;;4955050;28;20474;-70
2021/07/22 10:35:02;;;;;;;13.00;9.93;;;24.20;95.70;;;;;;4972616;28;20848;-70
2021/07/22 10:37:27;;;;;;;10.33;9.33;;;24.40;95.10;;;;;;4972930;28;20419;-70
2021/07/22 10:40:05;;;;;;;12.73;9.67;;;24.50;95.10;;;;;;4956061;28;20420;-69
2021/07/22 10:42:45;;;;;;;11.30;9.90;;;24.70;93.60;;;;;;4972889;28;20205;-70
2021/07/22 10:45:19;;;;;;;10.83;9.63;;;24.70;93.90;;;;;;4973291;28;20419;-70
2021/07/22 10:48:02;;;;;;;11.00;9.90;;;24.80;93.80;;;;;;4970948;28;20427;-70
2021/07/22 10:50:42;;;;;;;11.37;9.87;;;25.00;93.80;;;;;;4971192;28;20459;-70
2021/07/22 10:53:08;;;;;;;12.03;10.73;;;25.00;93.70;;;;;;4954645;28;20460;-70
2021/07/22 10:55:49;;;;;;;12.83;10.70;;;25.20;93.40;;;;;;4969046;28;20825;-72
2021/07/22 10:58:47;;;;;;;13.40;10.13;;;25.20;93.30;;;;;;4973664;28;20241;-71
2021/07/22 11:01:14;;;;;;;11.90;10.25;;;25.40;93.30;;;;;;4967009;28;20440;-71
2021/07/22 11:03:43;;;;;;;11.43;10.20;;;25.40;93.20;;;;;;4972151;28;20283;-72
2021/07/22 11:06:15;;;;;;;15.20;12.60;;;25.40;93.10;;;;;;4963018;28;20467;-70
2021/07/22 11:08:42;;;;;;;14.63;13.10;;;25.60;92.80;;;;;;4964117;28;20769;-71
2021/07/22 11:11:13;;;;;;;17.23;14.00;;;25.40;92.60;;;;;;4970420;28;20444;-69
2021/07/22 11:13:46;;;;;;;15.00;12.30;;;25.20;92.90;;;;;;4953059;28;20538;-69
2021/07/22 11:16:20;;;;;;;15.63;13.17;;;24.80;93.50;;;;;;4965191;28;20497;-70
2021/07/22 11:18:50;;;;;;;19.07;12.20;;;24.50;93.70;;;;;;4972271;28;20415;-70
2021/07/22 11:21:33;;;;;;;16.83;13.97;;;24.40;93.90;;;;;;4971673;28;20428;-70
2021/07/22 11:24:07;;;;;;;15.50;13.20;;;24.30;93.90;;;;;;4968702;28;20455;-70
2021/07/22 11:26:40;;;;;;;14.27;12.47;;;24.40;93.70;;;;;;4971267;28;20526;-69
2021/07/22 11:29:10;;;;;;;14.00;11.53;;;24.40;94.70;;;;;;4971079;28;20467;-69
2021/07/22 11:31:46;;;;;;;15.98;12.85;;;24.50;93.80;;;;;;4970046;28;20422;-69
2021/07/22 11:34:12;;;;;;;15.23;12.40;;;24.70;93.10;;;;;;4970520;28;20196;-68
2021/07/22 11:36:38;;;;;;;14.20;12.20;;;24.90;93.30;;;;;;4969988;28;20440;-68
2021/07/22 11:39:05;;;;;;;14.60;12.30;;;25.00;92.30;;;;;;4970805;28;20417;-69
2021/07/22 11:41:31;;;;;;;14.17;12.10;;;24.90;92.70;;;;;;4969923;28;20177;-70
2021/07/22 11:44:01;;;;;;;13.63;10.33;;;24.90;92.80;;;;;;4970413;28;20451;-69
2021/07/22 11:46:44;;;;;;;16.47;13.30;;;25.00;93.10;;;;;;4986152;28;20192;-69
2021/07/22 11:49:17;;;;;;;15.43;13.10;;;24.80;93.10;;;;;;4969883;28;20506;-70
2021/07/22 11:51:44;;;;;;;13.70;12.30;;;24.60;93.60;;;;;;4958364;28;20435;-71
2021/07/22 11:54:13;;;;;;;19.30;13.77;;;24.50;93.80;;;;;;4969910;28;20968;-69
2021/07/22 11:56:40;;;;;;;17.30;13.50;;;24.50;93.90;;;;;;4968785;28;20428;-70
2021/07/22 11:59:09;;;;;;;15.73;13.10;;;24.30;94.00;;;;;;4971035;28;20432;-70
2021/07/22 12:01:45;;;;;;;14.30;12.80;;;24.20;94.10;;;;;;4969820;28;20860;-70
2021/07/22 12:04:11;;;;;;;14.40;12.90;;;24.00;94.40;;;;;;4973316;28;20455;-72
2021/07/22 12:06:37;;;;;;;19.03;16.00;;;24.00;94.60;;;;;;4970332;28;20824;-69
2021/07/22 12:09:08;;;;;;;14.83;13.13;;;24.20;94.80;;;;;;4935331;28;20440;-70
2021/07/22 12:11:45;;;;;;;15.25;13.65;;;24.20;94.50;;;;;;4968621;28;20470;-69
2021/07/22 12:14:10;;;;;;;16.33;13.33;;;24.30;94.40;;;;;;4962608;28;20258;-70
2021/07/22 12:16:36;;;;;;;18.83;15.50;;;24.40;94.30;;;;;;4972257;28;21164;-69
2021/07/22 12:19:02;;;;;;;13.97;12.23;;;24.40;94.10;;;;;;4972680;28;20184;-70
2021/07/22 12:21:29;;;;;;;15.63;13.67;;;24.40;94.30;;;;;;4961726;28;20874;-69
2021/07/22 12:24:14;;;;;;;14.77;13.20;;;24.50;94.30;;;;;;4973430;28;20444;-69
2021/07/22 12:26:40;;;;;;;13.63;12.30;;;24.50;94.40;;;;;;4974527;28;20544;-69
2021/07/22 12:29:06;;;;;;;16.00;13.50;;;24.50;94.40;;;;;;4972844;28;20484;-69
2021/07/22 12:31:40;;;;;;;16.43;14.17;;;24.50;94.40;;;;;;4971509;28;20523;-69
2021/07/22 12:34:07;;;;;;;16.53;12.40;;;24.70;94.00;;;;;;4975597;28;20216;-70
2021/07/22 12:36:34;;;;;;;13.90;12.17;;;24.80;93.90;;;;;;4993089;28;20482;-70
2021/07/22 12:39:08;;;;;;;14.33;12.13;;;24.80;93.80;;;;;;4993178;28;20929;-70
2021/07/22 12:41:34;;;;;;;15.40;13.57;;;24.80;93.70;;;;;;4962437;29;20514;-70
2021/07/22 12:44:00;;;;;;;15.13;13.60;;;24.80;93.10;;;;;;4962856;28;20539;-71
2021/07/22 12:46:30;;;;;;;13.37;11.97;;;24.90;93.40;;;;;;4972801;28;20292;-70
2021/07/22 12:48:57;;;;;;;15.73;13.33;;;24.90;92.80;;;;;;4966340;28;20280;-69